Time;durP1;ratioP1;P1;durP2;ratioP2;P2;SDS_P1;SDS_P2;PMS_P1;PMS_P2;Temp;Humidity;BMP_temperature;BMP_pressure;BME280_temperature;BME280_humidity;BME280_pressure;Samples;Min_cycle;Max_cycle;Signal;HPM_P1;HPM_P2
2023/08/06 03:13:02;;;;;;;15.48;2.25;;;15.90;78.20;;;;;;5097557;28;20050;-80
2023/08/06 03:15:30;;;;;;;16.48;2.10;;;15.80;78.40;;;;;;5094700;28;20513;-80
2023/08/06 03:17:57;;;;;;;7.93;1.52;;;15.80;80.30;;;;;;5088887;28;20036;-77
2023/08/06 03:20:25;;;;;;;9.45;1.70;;;15.80;79.20;;;;;;5082806;28;20078;-79
2023/08/06 03:22:52;;;;;;;5.95;1.88;;;15.80;78.80;;;;;;5060603;28;20795;-76
2023/08/06 03:25:19;;;;;;;8.32;1.90;;;15.80;79.00;;;;;;5070939;28;20075;-73
2023/08/06 03:27:46;;;;;;;7.45;1.48;;;15.80;78.60;;;;;;5050838;28;20110;-77
2023/08/06 03:30:14;;;;;;;6.22;1.77;;;15.80;78.20;;;;;;5069078;28;20119;-73
2023/08/06 03:32:41;;;;;;;9.30;1.83;;;15.80;77.50;;;;;;5068998;28;20040;-77
2023/08/06 03:35:08;;;;;;;6.47;1.55;;;15.80;77.40;;;;;;5069871;28;20060;-74
2023/08/06 03:37:35;;;;;;;9.35;1.85;;;15.80;78.00;;;;;;5085493;28;20114;-76
2023/08/06 03:40:03;;;;;;;4.68;1.70;;;15.90;77.60;;;;;;5089700;28;20036;-72
2023/08/06 03:42:30;;;;;;;9.85;1.90;;;15.90;77.00;;;;;;5089792;28;20043;-74
2023/08/06 03:44:57;;;;;;;7.03;1.98;;;15.90;77.50;;;;;;5084559;28;20105;-73
2023/08/06 03:47:24;;;;;;;7.88;1.70;;;15.90;77.80;;;;;;5072224;28;20405;-74
2023/08/06 03:49:52;;;;;;;6.85;2.17;;;16.00;78.10;;;;;;5089645;28;20024;-72
2023/08/06 03:52:19;;;;;;;6.57;1.77;;;16.00;76.90;;;;;;5088758;28;20047;-76
2023/08/06 03:54:46;;;;;;;9.35;2.22;;;16.00;76.60;;;;;;5089523;28;20039;-84
2023/08/06 03:57:13;;;;;;;6.82;1.95;;;16.00;77.00;;;;;;5054781;28;20505;-83
2023/08/06 03:59:41;;;;;;;10.00;1.85;;;16.00;76.60;;;;;;5088664;28;20043;-78
2023/08/06 04:02:08;;;;;;;11.30;1.80;;;16.00;76.80;;;;;;5089438;28;20032;-74
2023/08/06 04:04:35;;;;;;;8.65;1.88;;;16.00;76.40;;;;;;5089332;28;20029;-75
2023/08/06 04:07:02;;;;;;;8.85;1.85;;;15.90;76.70;;;;;;5088827;28;20414;-74
2023/08/06 04:09:30;;;;;;;12.90;1.70;;;16.00;77.50;;;;;;5087409;28;20036;-74
2023/08/06 04:11:58;;;;;;;6.72;1.52;;;16.00;76.30;;;;;;5072729;28;20051;-76
2023/08/06 04:14:28;;;;;;;8.35;1.92;;;16.00;76.70;;;;;;5091426;28;20062;-82
2023/08/06 04:16:55;;;;;;;9.63;2.00;;;16.00;75.80;;;;;;5073406;28;20513;-76
2023/08/06 04:19:22;;;;;;;9.57;2.40;;;16.00;76.70;;;;;;5091743;28;20036;-77
2023/08/06 04:21:49;;;;;;;20.88;3.33;;;16.00;75.10;;;;;;5109463;28;20059;-77
2023/08/06 04:24:16;;;;;;;8.00;1.90;;;16.00;76.30;;;;;;5090872;28;20034;-76
2023/08/06 04:26:43;;;;;;;10.25;2.60;;;16.00;76.50;;;;;;5109641;28;20058;-81
2023/08/06 04:29:11;;;;;;;7.15;2.10;;;16.00;75.80;;;;;;5110009;28;20485;-84
2023/08/06 04:31:38;;;;;;;9.20;1.90;;;16.00;75.50;;;;;;5103383;28;20105;-86
2023/08/06 04:34:05;;;;;;;10.13;2.60;;;15.90;76.50;;;;;;5090617;28;20035;-84
2023/08/06 04:36:32;;;;;;;57.95;5.60;;;16.00;77.10;;;;;;5106031;28;20052;-83
2023/08/06 04:39:00;;;;;;;34.55;4.05;;;16.00;76.60;;;;;;5073668;28;20044;-82
2023/08/06 04:41:27;;;;;;;40.13;5.40;;;16.00;77.10;;;;;;5099479;28;20038;-80
2023/08/06 10:56:39;;;;;;;;;;;14.50;78.50;;;;;;5095188;28;20050;-79
2023/08/06 10:59:07;;;;;;;5.55;2.08;;;14.50;79.10;;;;;;5090052;28;19930;-80
2023/08/06 11:01:35;;;;;;;7.78;2.40;;;14.50;79.00;;;;;;5089924;28;20469;-78
2023/08/06 11:04:05;;;;;;;8.80;2.60;;;14.50;79.40;;;;;;5102606;27;20091;-80
2023/08/06 11:06:33;;;;;;;6.50;2.57;;;14.40;79.40;;;;;;5091757;28;20038;-79
2023/08/06 11:09:01;;;;;;;8.52;2.08;;;14.30;79.60;;;;;;5092050;28;20765;-75
2023/08/06 11:11:29;;;;;;;7.20;2.75;;;14.40;79.70;;;;;;5110428;28;20040;-76
2023/08/06 11:13:56;;;;;;;12.10;2.72;;;14.30;79.80;;;;;;5110156;28;20493;-75
2023/08/06 11:16:27;;;;;;;5.68;2.35;;;14.30;79.90;;;;;;5091729;28;20062;-76
2023/08/06 11:18:56;;;;;;;7.47;2.35;;;14.30;79.90;;;;;;5091459;28;20092;-79
2023/08/06 11:21:24;;;;;;;8.00;2.22;;;14.30;80.00;;;;;;5075036;28;20042;-79
2023/08/06 11:23:52;;;;;;;7.35;2.83;;;14.30;80.20;;;;;;5092361;28;20035;-77
2023/08/06 11:26:23;;;;;;;6.30;2.47;;;14.30;80.50;;;;;;5091312;28;20032;-77
2023/08/06 11:28:50;;;;;;;7.28;2.55;;;14.30;80.50;;;;;;5091847;28;20047;-76
2023/08/06 11:31:24;;;;;;;5.07;2.28;;;14.30;80.20;;;;;;5107725;28;20126;-80
2023/08/06 11:33:52;;;;;;;7.60;2.28;;;14.20;80.40;;;;;;5071391;28;20060;-79
2023/08/06 11:36:33;;;;;;;7.63;2.20;;;14.20;80.30;;;;;;5087496;28;20036;-80
2023/08/06 11:39:00;;;;;;;7.55;2.42;;;14.20;80.10;;;;;;5084659;28;20539;-83
2023/08/06 11:41:30;;;;;;;6.55;2.63;;;14.20;80.40;;;;;;5088896;28;20050;-80
2023/08/06 11:43:58;;;;;;;7.10;2.65;;;14.20;80.70;;;;;;5091059;28;20544;-83
2023/08/06 11:46:25;;;;;;;9.05;2.35;;;14.20;80.90;;;;;;5082747;28;20122;-77
2023/08/06 11:48:56;;;;;;;8.77;2.78;;;14.10;80.70;;;;;;5108880;28;20024;-82
2023/08/06 11:51:27;;;;;;;7.93;2.72;;;14.10;80.70;;;;;;5106561;28;20036;-80
2023/08/06 11:53:58;;;;;;;5.97;2.40;;;14.00;80.80;;;;;;5109102;28;20428;-85
2023/08/06 11:56:25;;;;;;;;;;;14.00;80.70;;;;;;5072772;28;20386;-82
2023/08/06 11:58:53;;;;;;;11.45;2.95;;;14.00;80.70;;;;;;5107939;28;19915;-76
2023/08/06 12:01:20;;;;;;;7.65;2.60;;;14.00;80.70;;;;;;5090441;28;20393;-82
2023/08/06 12:03:47;;;;;;;4.38;2.75;;;13.90;80.80;;;;;;5109793;28;20493;-81
2023/08/06 12:06:14;;;;;;;6.78;2.55;;;13.90;81.00;;;;;;5109864;28;20036;-83
2023/08/06 12:08:42;;;;;;;7.38;2.55;;;13.90;81.00;;;;;;5108823;28;20115;-81
2023/08/06 12:11:09;;;;;;;7.97;2.50;;;13.90;80.90;;;;;;5093412;28;20090;-78
2023/08/06 12:13:36;;;;;;;7.05;2.60;;;13.80;80.90;;;;;;5109728;28;20118;-78
2023/08/06 12:16:03;;;;;;;5.18;2.78;;;13.80;80.90;;;;;;5109587;28;20035;-82
2023/08/06 12:18:31;;;;;;;12.93;2.75;;;13.80;81.10;;;;;;5085139;28;20032;-80
2023/08/06 12:20:58;;;;;;;5.13;2.50;;;13.70;81.20;;;;;;5089377;28;20029;-80
2023/08/06 12:23:25;;;;;;;8.77;2.85;;;13.70;81.30;;;;;;5107925;28;20122;-77
2023/08/06 12:25:52;;;;;;;7.15;2.72;;;13.70;81.10;;;;;;5109618;28;20036;-83
2023/08/06 12:28:19;;;;;;;6.25;2.80;;;13.70;81.00;;;;;;5108253;28;20393;-80
2023/08/06 12:30:48;;;;;;;7.35;2.97;;;13.70;81.30;;;;;;5088896;28;20491;-80
2023/08/06 12:33:15;;;;;;;8.88;3.00;;;13.60;81.30;;;;;;5089307;28;20149;-83
2023/08/06 12:35:43;;;;;;;7.32;2.70;;;13.60;81.60;;;;;;5093018;28;20019;-82
2023/08/06 12:38:10;;;;;;;7.45;2.83;;;13.60;81.50;;;;;;5108087;28;20046;-86
2023/08/06 12:40:37;;;;;;;7.70;2.80;;;13.50;81.40;;;;;;5109722;28;20323;-85
2023/08/06 12:43:04;;;;;;;8.38;3.20;;;13.50;81.20;;;;;;5092388;28;20067;-80
2023/08/06 12:45:31;;;;;;;8.20;3.13;;;13.50;81.20;;;;;;5092234;28;20648;-81
2023/08/06 12:47:59;;;;;;;7.22;3.33;;;13.40;81.30;;;;;;5109617;28;20034;-82
2023/08/06 12:50:26;;;;;;;5.25;2.75;;;13.40;81.40;;;;;;5100297;28;20040;-80
2023/08/06 12:52:53;;;;;;;8.32;2.95;;;13.30;81.40;;;;;;5054170;28;20040;-81
2023/08/06 12:55:20;;;;;;;13.32;4.05;;;13.30;81.50;;;;;;5089305;28;20028;-79
2023/08/06 12:57:47;;;;;;;7.03;2.92;;;13.30;81.50;;;;;;5088995;28;20094;-80
2023/08/06 13:00:15;;;;;;;13.75;3.60;;;13.30;81.60;;;;;;5090024;28;20039;-79
2023/08/06 13:02:42;;;;;;;7.90;3.83;;;13.20;81.70;;;;;;5097393;28;20453;-81
2023/08/06 13:05:09;;;;;;;6.68;3.60;;;13.20;81.90;;;;;;5113085;28;20047;-78
2023/08/06 13:07:37;;;;;;;8.40;4.07;;;13.20;82.10;;;;;;5113254;28;20038;-77
2023/08/06 13:10:04;;;;;;;8.55;3.95;;;13.20;82.60;;;;;;5115844;27;20027;-80
2023/08/06 13:12:31;;;;;;;10.55;4.32;;;13.10;82.90;;;;;;5114543;28;20055;-80
2023/08/06 13:14:59;;;;;;;10.18;4.00;;;13.10;83.00;;;;;;5095612;28;20031;-80
2023/08/06 13:17:26;;;;;;;9.43;4.28;;;13.00;83.00;;;;;;5114945;28;20431;-81
2023/08/06 13:19:54;;;;;;;8.55;3.85;;;12.90;82.80;;;;;;5108754;28;20386;-80
2023/08/06 13:22:21;;;;;;;9.13;4.10;;;12.80;83.10;;;;;;5101515;28;20039;-80
2023/08/06 13:24:48;;;;;;;11.27;4.10;;;12.80;83.20;;;;;;5115014;28;20027;-80
2023/08/06 13:27:15;;;;;;;11.57;4.03;;;12.80;83.00;;;;;;5114988;28;20519;-80
2023/08/06 13:29:42;;;;;;;10.50;4.72;;;12.80;83.10;;;;;;5115183;28;20032;-80
2023/08/06 13:32:10;;;;;;;9.52;4.15;;;12.70;82.80;;;;;;5114789;28;20044;-80
2023/08/06 13:34:37;;;;;;;9.07;4.40;;;12.80;83.10;;;;;;5087932;28;20115;-80
2023/08/06 13:37:04;;;;;;;9.07;4.50;;;12.70;83.40;;;;;;5090928;28;20115;-80
2023/08/06 13:39:31;;;;;;;10.05;4.75;;;12.70;83.70;;;;;;5114667;28;20050;-81
2023/08/06 13:41:58;;;;;;;8.85;4.45;;;12.70;83.50;;;;;;5096512;28;20169;-80
2023/08/06 13:44:26;;;;;;;8.80;4.10;;;12.70;83.60;;;;;;5110588;28;20020;-80
2023/08/06 13:46:53;;;;;;;6.57;3.85;;;12.70;84.00;;;;;;5096094;28;20418;-80
2023/08/06 13:49:20;;;;;;;9.63;4.28;;;12.70;84.10;;;;;;5114655;28;20032;-80
2023/08/06 13:51:47;;;;;;;10.88;4.90;;;12.60;84.70;;;;;;5114535;28;20043;-81
2023/08/06 13:54:15;;;;;;;8.75;4.47;;;12.50;85.10;;;;;;5105455;28;20036;-81
2023/08/06 13:56:42;;;;;;;9.95;4.22;;;12.50;85.40;;;;;;5093977;28;20048;-80
2023/08/06 13:59:13;;;;;;;7.45;4.00;;;12.50;85.30;;;;;;5094139;28;20032;-80
2023/08/06 14:01:40;;;;;;;7.20;4.20;;;12.50;84.70;;;;;;5101403;28;20557;-80
2023/08/06 14:04:08;;;;;;;7.28;4.00;;;12.50;84.80;;;;;;5113919;28;20185;-80
2023/08/06 14:06:35;;;;;;;8.25;4.00;;;12.50;84.60;;;;;;5114024;28;20107;-80
2023/08/06 14:09:02;;;;;;;6.72;3.83;;;12.50;84.50;;;;;;5113954;28;20101;-80
2023/08/06 14:11:29;;;;;;;7.45;3.75;;;12.40;84.20;;;;;;5117941;27;20035;-80
2023/08/06 14:13:57;;;;;;;8.60;4.03;;;12.40;84.60;;;;;;5114280;27;20051;-80
2023/08/06 14:16:24;;;;;;;9.80;4.07;;;12.40;84.80;;;;;;5102324;28;20090;-80
2023/08/06 14:18:51;;;;;;;7.78;3.65;;;12.30;84.80;;;;;;5105808;28;20024;-80
2023/08/06 14:21:18;;;;;;;6.82;3.53;;;12.30;84.80;;;;;;5094279;28;20541;-80
2023/08/06 14:23:45;;;;;;;6.05;3.08;;;12.30;84.90;;;;;;5094345;28;20036;-80
2023/08/06 14:26:15;;;;;;;5.35;3.70;;;12.20;84.90;;;;;;5113427;28;20435;-80
2023/08/06 14:28:42;;;;;;;6.68;3.50;;;12.20;84.70;;;;;;5100289;28;20040;-81
2023/08/06 14:31:09;;;;;;;7.65;3.00;;;12.20;85.20;;;;;;5093642;28;20064;-80
2023/08/06 14:33:36;;;;;;;9.65;3.45;;;12.20;85.20;;;;;;5093509;28;20036;-80
2023/08/06 14:36:04;;;;;;;8.38;3.55;;;12.20;84.90;;;;;;5108126;28;20027;-80
2023/08/06 14:38:31;;;;;;;6.18;3.25;;;12.20;84.70;;;;;;5113804;28;20035;-80
2023/08/06 14:40:59;;;;;;;7.15;3.40;;;12.20;84.60;;;;;;5091585;28;20030;-80
2023/08/06 14:43:26;;;;;;;9.00;3.40;;;12.20;84.20;;;;;;5092862;28;20664;-81
2023/08/06 14:45:53;;;;;;;8.35;3.78;;;12.20;84.00;;;;;;5107915;28;20114;-80
2023/08/06 14:48:20;;;;;;;7.20;3.30;;;12.20;84.20;;;;;;5104451;28;20119;-80
2023/08/06 14:50:48;;;;;;;5.93;3.17;;;12.20;84.00;;;;;;5093280;28;20039;-80
2023/08/06 14:53:15;;;;;;;6.78;3.08;;;12.20;83.90;;;;;;5093047;28;20039;-80
2023/08/06 14:55:42;;;;;;;6.97;3.35;;;12.20;83.90;;;;;;5102968;28;20028;-81
2023/08/06 14:58:09;;;;;;;7.18;3.20;;;12.20;83.90;;;;;;5094227;28;20051;-80
2023/08/06 15:00:37;;;;;;;6.70;3.25;;;12.20;83.80;;;;;;5093235;28;20085;-80
2023/08/06 15:03:04;;;;;;;8.05;3.20;;;12.20;84.30;;;;;;5093490;28;20113;-80
2023/08/06 15:05:31;;;;;;;7.75;3.30;;;12.20;84.20;;;;;;5093237;28;20057;-80
2023/08/06 15:07:58;;;;;;;10.60;4.00;;;12.20;84.10;;;;;;5092682;28;20597;-80
2023/08/06 15:10:25;;;;;;;5.60;3.13;;;12.10;84.40;;;;;;5109680;28;20031;-81
2023/08/06 15:12:52;;;;;;;5.03;2.90;;;12.10;84.10;;;;;;5112877;28;20050;-80
2023/08/06 15:15:20;;;;;;;6.65;2.95;;;12.10;84.00;;;;;;5113223;28;20099;-81
2023/08/06 15:17:47;;;;;;;6.30;3.10;;;12.00;83.70;;;;;;5113298;28;20027;-80
2023/08/06 15:20:14;;;;;;;5.70;3.30;;;12.00;83.70;;;;;;5095798;28;20484;-80
2023/08/06 15:22:41;;;;;;;9.77;3.50;;;12.00;83.50;;;;;;5096353;28;20033;-80
2023/08/06 15:25:09;;;;;;;4.75;2.67;;;12.00;83.10;;;;;;5111503;28;20031;-80
2023/08/06 15:27:36;;;;;;;6.88;3.33;;;12.10;83.20;;;;;;5113017;28;20049;-80
2023/08/06 15:30:07;;;;;;;12.07;3.90;;;12.10;83.50;;;;;;5112849;28;20030;-80
2023/08/06 15:32:34;;;;;;;4.78;3.03;;;12.10;83.90;;;;;;5126568;27;20039;-80
2023/08/06 15:35:03;;;;;;;6.03;3.00;;;12.10;83.10;;;;;;5109682;27;20038;-81
2023/08/06 15:37:30;;;;;;;6.28;3.10;;;12.10;83.00;;;;;;5109915;28;20067;-81
2023/08/06 15:39:58;;;;;;;7.43;2.83;;;12.20;82.90;;;;;;5109850;28;20023;-80
2023/08/06 15:42:25;;;;;;;4.50;2.72;;;12.20;82.90;;;;;;5095033;28;20420;-80
2023/08/06 15:44:52;;;;;;;7.28;2.80;;;12.20;83.50;;;;;;5100322;28;20038;-81
2023/08/06 15:47:20;;;;;;;4.55;2.70;;;12.20;83.20;;;;;;5111419;27;20088;-80
2023/08/06 15:49:47;;;;;;;5.00;2.90;;;12.20;83.10;;;;;;5115995;27;20030;-80
2023/08/06 15:52:14;;;;;;;5.22;2.60;;;12.20;82.80;;;;;;5099262;28;20486;-80
2023/08/06 15:54:41;;;;;;;4.90;2.47;;;12.20;83.60;;;;;;5093990;28;20077;-80
2023/08/06 15:57:09;;;;;;;5.95;2.78;;;12.20;83.10;;;;;;5112068;28;20050;-80
2023/08/06 15:59:36;;;;;;;4.35;2.55;;;12.10;82.80;;;;;;5102087;28;20497;-80
2023/08/06 16:02:03;;;;;;;3.70;2.30;;;12.20;82.70;;;;;;5092311;28;20123;-80
2023/08/06 16:04:31;;;;;;;5.60;3.00;;;12.20;83.20;;;;;;5097568;28;20035;-80
2023/08/06 16:06:59;;;;;;;4.18;2.45;;;12.20;82.60;;;;;;5085785;28;20044;-80
2023/08/06 16:09:26;;;;;;;4.68;2.42;;;12.20;82.80;;;;;;5091976;28;20044;-80
2023/08/06 16:11:53;;;;;;;5.38;2.70;;;12.20;83.00;;;;;;5092019;28;20157;-80
2023/08/06 16:14:21;;;;;;;3.80;2.30;;;12.20;82.90;;;;;;5108227;28;20043;-80
2023/08/06 16:16:48;;;;;;;5.82;2.58;;;12.20;82.80;;;;;;5112552;28;20057;-80
2023/08/06 16:19:15;;;;;;;5.50;2.75;;;12.20;82.60;;;;;;5112155;28;20020;-81
2023/08/06 16:21:43;;;;;;;6.22;2.33;;;12.20;82.80;;;;;;5112286;28;20027;-80
2023/08/06 16:24:10;;;;;;;12.55;3.03;;;12.20;83.00;;;;;;5111491;28;20038;-80
2023/08/06 16:26:37;;;;;;;5.28;2.60;;;12.20;82.30;;;;;;5107853;28;20044;-80
2023/08/06 16:29:04;;;;;;;3.90;2.30;;;12.20;83.00;;;;;;5092257;28;20040;-80
2023/08/06 16:31:32;;;;;;;8.45;2.60;;;12.20;83.00;;;;;;5110837;28;20100;-81
2023/08/06 16:33:59;;;;;;;4.15;2.33;;;12.20;82.90;;;;;;5111867;28;20048;-80
2023/08/06 16:36:26;;;;;;;3.63;2.17;;;12.20;82.50;;;;;;5109898;28;20055;-80
2023/08/06 16:38:53;;;;;;;6.43;2.38;;;12.20;83.50;;;;;;5095581;28;20032;-80
2023/08/06 16:41:21;;;;;;;3.28;2.17;;;12.20;83.20;;;;;;5095954;28;20032;-80
2023/08/06 16:43:48;;;;;;;4.38;2.40;;;12.20;82.90;;;;;;5100947;28;20489;-80
2023/08/06 16:46:15;;;;;;;3.28;2.30;;;12.20;82.80;;;;;;5116312;28;20441;-80
2023/08/06 16:48:43;;;;;;;4.72;2.10;;;12.20;83.00;;;;;;5115696;28;20112;-80
2023/08/06 16:51:13;;;;;;;5.72;2.53;;;12.20;82.60;;;;;;5104721;28;20078;-80
2023/08/06 16:53:40;;;;;;;4.68;2.08;;;12.20;83.00;;;;;;5095330;28;20111;-80
2023/08/06 16:56:07;;;;;;;3.35;2.20;;;12.20;82.60;;;;;;5095366;28;20478;-80
2023/08/06 16:58:34;;;;;;;8.18;2.75;;;12.20;82.20;;;;;;5095239;28;20105;-80
2023/08/06 17:01:05;;;;;;;9.00;2.33;;;12.30;82.60;;;;;;5102691;28;20035;-81
2023/08/06 17:03:32;;;;;;;4.75;2.25;;;12.20;82.20;;;;;;5115515;28;20062;-80
2023/08/06 17:06:00;;;;;;;4.20;2.25;;;12.30;82.30;;;;;;5104679;27;20092;-80
2023/08/06 17:08:33;;;;;;;3.42;1.90;;;12.20;82.50;;;;;;5095182;28;20040;-81
2023/08/06 17:11:03;;;;;;;4.18;2.20;;;12.20;82.20;;;;;;5095806;28;20181;-80
2023/08/06 17:13:31;;;;;;;3.53;2.03;;;12.20;82.70;;;;;;5078531;28;20043;-80
2023/08/06 17:15:58;;;;;;;4.63;2.10;;;12.20;82.40;;;;;;5109936;28;20282;-81
2023/08/06 17:18:25;;;;;;;7.15;2.40;;;12.20;83.00;;;;;;5094906;28;20097;-80
2023/08/06 17:20:53;;;;;;;3.80;2.13;;;12.20;82.60;;;;;;5099245;28;20033;-80
2023/08/06 17:23:20;;;;;;;8.60;2.28;;;12.20;81.90;;;;;;5099821;28;20485;-80
2023/08/06 17:25:47;;;;;;;3.63;1.83;;;12.20;81.90;;;;;;5087676;28;20066;-80
2023/08/06 17:28:15;;;;;;;2.92;1.80;;;12.20;81.80;;;;;;5114313;28;20043;-80
2023/08/06 17:30:43;;;;;;;2.83;1.90;;;12.20;81.80;;;;;;5097181;28;20039;-80
2023/08/06 17:33:11;;;;;;;5.20;2.03;;;12.20;81.90;;;;;;5115108;28;20039;-81
2023/08/06 17:35:42;;;;;;;6.32;2.20;;;12.20;82.00;;;;;;5084519;28;20031;-81
2023/08/06 17:38:10;;;;;;;6.22;2.17;;;12.20;82.30;;;;;;5094242;28;20127;-80
2023/08/06 17:40:37;;;;;;;4.60;2.20;;;12.20;83.00;;;;;;5060195;28;20042;-80
2023/08/06 17:43:04;;;;;;;4.43;1.98;;;12.20;83.90;;;;;;5084089;28;20085;-80
2023/08/06 17:45:32;;;;;;;7.22;2.50;;;12.10;84.00;;;;;;5114290;28;20106;-80
2023/08/06 17:47:59;;;;;;;4.07;2.25;;;12.00;85.20;;;;;;5094149;28;20615;-80
2023/08/06 17:50:26;;;;;;;5.57;1.90;;;12.10;86.10;;;;;;5094539;28;20028;-80
2023/08/06 17:52:53;;;;;;;3.55;1.83;;;12.00;85.70;;;;;;5108838;28;20044;-80
2023/08/06 17:55:22;;;;;;;5.45;2.20;;;12.00;86.30;;;;;;5096323;28;20393;-80
2023/08/06 17:57:49;;;;;;;4.32;1.90;;;12.00;85.50;;;;;;5080296;28;20131;-80
2023/08/06 18:00:16;;;;;;;4.82;2.20;;;12.00;86.10;;;;;;5094749;28;20063;-80
2023/08/06 18:02:43;;;;;;;6.38;2.25;;;12.00;86.30;;;;;;5094307;28;20115;-80
2023/08/06 18:05:14;;;;;;;5.18;2.28;;;12.00;85.50;;;;;;5094170;28;20059;-80
2023/08/06 18:07:43;;;;;;;;;;;12.00;85.80;;;;;;5094438;28;20093;-80
2023/08/06 18:10:10;;;;;;;3.38;1.95;;;12.00;85.10;;;;;;5094728;28;20049;-80
2023/08/06 18:12:39;;;;;;;2.65;2.17;;;12.00;84.90;;;;;;5094157;28;20112;-80
2023/08/06 18:15:07;;;;;;;3.75;1.98;;;12.00;85.50;;;;;;5109419;28;20034;-80
2023/08/06 18:17:34;;;;;;;4.43;2.00;;;12.10;85.30;;;;;;5106171;28;20438;-80
2023/08/06 18:20:01;;;;;;;6.85;2.10;;;12.00;85.20;;;;;;5112961;28;20039;-81
2023/08/06 18:22:29;;;;;;;4.28;2.17;;;12.10;85.20;;;;;;5095646;28;20088;-81
2023/08/06 18:24:57;;;;;;;3.03;1.80;;;12.10;85.50;;;;;;5114407;28;20028;-81
2023/08/06 18:27:24;;;;;;;2.72;1.95;;;12.00;85.20;;;;;;5096367;28;20059;-79
2023/08/06 18:29:52;;;;;;;3.40;2.10;;;12.10;85.10;;;;;;5111359;28;20111;-79
2023/08/06 18:32:19;;;;;;;3.72;2.00;;;12.10;85.60;;;;;;5103832;28;20425;-80
2023/08/06 18:34:46;;;;;;;5.05;2.15;;;12.10;85.60;;;;;;5111047;28;20092;-80
2023/08/06 18:37:13;;;;;;;4.38;2.00;;;12.10;85.60;;;;;;5109312;28;20051;-80
2023/08/06 18:39:42;;;;;;;4.22;2.35;;;12.10;84.90;;;;;;5097596;28;20039;-80
2023/08/06 18:42:10;;;;;;;3.35;1.83;;;12.00;85.10;;;;;;5112218;28;20063;-80
2023/08/06 18:44:37;;;;;;;5.75;2.25;;;12.00;84.60;;;;;;5078192;28;20084;-80
2023/08/06 18:47:04;;;;;;;2.80;1.80;;;12.00;84.70;;;;;;5111818;28;20058;-80
2023/08/06 18:49:32;;;;;;;3.28;1.85;;;12.10;84.70;;;;;;5101165;28;20036;-80
2023/08/06 18:52:00;;;;;;;2.80;1.67;;;12.00;85.00;;;;;;5108983;28;20075;-80
2023/08/06 18:54:27;;;;;;;4.40;1.75;;;12.00;84.00;;;;;;5111412;28;20027;-80
2023/08/06 18:56:54;;;;;;;3.97;1.70;;;12.00;84.80;;;;;;5111048;28;20043;-80
2023/08/06 18:59:23;;;;;;;3.47;1.90;;;12.00;84.10;;;;;;5111569;28;20039;-79
2023/08/06 19:01:50;;;;;;;4.43;1.77;;;12.00;83.90;;;;;;5112317;28;20024;-80
2023/08/06 19:04:17;;;;;;;5.25;1.80;;;12.00;83.80;;;;;;5108992;28;20031;-79
2023/08/06 19:06:44;;;;;;;2.33;1.60;;;12.00;83.50;;;;;;5093019;28;20090;-79
2023/08/06 19:09:13;;;;;;;4.55;2.00;;;12.10;83.70;;;;;;5097251;28;20036;-80
2023/08/06 19:11:40;;;;;;;4.82;1.75;;;12.10;83.40;;;;;;5093140;28;20035;-79
2023/08/06 19:14:08;;;;;;;2.42;1.63;;;12.10;83.30;;;;;;5092814;28;20043;-78
2023/08/06 19:16:35;;;;;;;4.43;2.00;;;12.10;82.80;;;;;;5093100;28;20524;-77
2023/08/06 19:19:02;;;;;;;2.40;1.40;;;12.10;83.30;;;;;;5105050;28;20035;-80
2023/08/06 19:21:29;;;;;;;2.30;1.73;;;12.10;83.00;;;;;;5106197;28;20028;-80
2023/08/06 19:23:57;;;;;;;4.35;1.50;;;12.10;83.00;;;;;;5109765;28;20406;-80
2023/08/06 19:26:24;;;;;;;3.53;1.80;;;12.10;83.10;;;;;;5109993;28;20459;-79
2023/08/06 19:28:52;;;;;;;4.68;1.73;;;12.00;82.90;;;;;;5112981;28;20162;-79
2023/08/06 19:31:19;;;;;;;2.28;1.55;;;12.00;82.60;;;;;;5112575;28;20028;-79
2023/08/06 19:33:46;;;;;;;5.65;1.67;;;12.00;82.90;;;;;;5112595;28;20046;-80
2023/08/06 19:36:15;;;;;;;5.10;1.95;;;12.00;82.50;;;;;;5112495;28;20385;-80
2023/08/06 19:38:43;;;;;;;3.60;1.70;;;12.00;82.60;;;;;;5109198;28;20528;-79
2023/08/06 19:41:10;;;;;;;4.47;1.60;;;11.90;82.50;;;;;;5092873;28;20040;-80
2023/08/06 19:43:37;;;;;;;4.22;1.55;;;11.90;82.60;;;;;;5074810;28;20035;-80
2023/08/06 19:46:05;;;;;;;5.07;2.00;;;12.00;82.90;;;;;;5074876;28;20134;-80
2023/08/06 19:48:32;;;;;;;4.15;1.73;;;11.90;82.30;;;;;;5092467;28;20039;-80
2023/08/06 19:51:00;;;;;;;3.05;1.50;;;12.00;82.80;;;;;;5092642;28;20031;-80
2023/08/06 19:53:31;;;;;;;2.38;1.60;;;12.00;82.40;;;;;;5074855;28;20047;-80
2023/08/06 19:55:59;;;;;;;1.88;1.55;;;11.90;82.60;;;;;;5092368;28;20028;-80
2023/08/06 19:58:30;;;;;;;6.10;2.22;;;12.00;82.90;;;;;;5074455;28;20038;-80
2023/08/06 20:00:58;;;;;;;5.35;1.70;;;12.00;83.00;;;;;;5092341;28;20036;-80
2023/08/06 20:03:25;;;;;;;4.32;1.67;;;12.00;82.90;;;;;;5093289;28;20082;-80
2023/08/06 20:05:53;;;;;;;3.38;1.65;;;11.90;83.60;;;;;;5092187;28;20063;-80
2023/08/06 20:08:20;;;;;;;4.93;1.60;;;11.90;83.00;;;;;;5092306;28;20056;-80
2023/08/06 20:10:48;;;;;;;2.78;1.50;;;11.90;83.10;;;;;;5094448;28;20375;-80
2023/08/06 20:13:16;;;;;;;10.32;1.98;;;11.90;83.50;;;;;;5098064;28;20154;-80
2023/08/06 20:15:45;;;;;;;4.03;1.63;;;11.90;82.80;;;;;;5078237;28;20332;-80
2023/08/06 20:18:14;;;;;;;3.60;1.60;;;11.90;82.70;;;;;;5094865;28;20031;-80
2023/08/06 20:20:42;;;;;;;4.32;1.80;;;11.80;82.90;;;;;;5096166;28;20024;-80
2023/08/06 20:23:09;;;;;;;2.83;1.50;;;11.80;83.20;;;;;;5078002;28;20032;-80
2023/08/06 20:25:36;;;;;;;3.30;1.83;;;11.80;83.60;;;;;;5095918;28;20035;-81
2023/08/06 20:28:03;;;;;;;4.95;1.67;;;11.90;83.40;;;;;;5096153;28;20123;-80
2023/08/06 20:30:31;;;;;;;6.07;1.58;;;11.90;83.50;;;;;;5096352;28;20114;-80
2023/08/06 20:32:58;;;;;;;4.43;1.77;;;11.90;83.30;;;;;;5112915;28;20035;-80
2023/08/06 20:35:25;;;;;;;3.58;1.70;;;11.90;83.40;;;;;;5106605;28;20028;-81
2023/08/06 20:37:53;;;;;;;4.03;1.73;;;11.90;83.10;;;;;;5095780;28;20494;-80
2023/08/06 20:40:20;;;;;;;3.42;1.40;;;11.90;83.10;;;;;;5095753;28;20032;-80
2023/08/06 20:42:47;;;;;;;6.03;1.80;;;11.90;83.10;;;;;;5078097;28;20490;-80
2023/08/06 20:45:14;;;;;;;3.63;1.60;;;11.90;83.40;;;;;;5095828;28;20089;-80
2023/08/06 20:47:42;;;;;;;2.60;1.60;;;11.90;83.40;;;;;;5095370;28;20035;-80
2023/08/06 20:50:09;;;;;;;5.10;1.60;;;11.90;82.90;;;;;;5095773;28;20036;-80
2023/08/06 20:52:36;;;;;;;4.60;1.85;;;11.90;82.90;;;;;;5095033;28;20040;-80
2023/08/06 20:55:04;;;;;;;5.18;1.88;;;12.00;82.80;;;;;;5095372;28;20027;-80
2023/08/06 20:57:31;;;;;;;5.95;1.42;;;12.00;82.80;;;;;;5095346;28;20504;-80
2023/08/06 20:59:59;;;;;;;4.53;1.70;;;12.00;82.60;;;;;;5105540;28;20031;-80
2023/08/06 21:02:26;;;;;;;3.00;1.40;;;12.00;82.70;;;;;;5080336;28;20039;-77
2023/08/06 21:04:53;;;;;;;4.85;1.50;;;12.00;83.00;;;;;;5115448;28;20550;-77
2023/08/06 21:07:20;;;;;;;3.15;1.63;;;12.00;82.50;;;;;;5115841;28;20051;-77
2023/08/06 21:09:48;;;;;;;4.45;1.70;;;12.00;82.40;;;;;;5115795;28;20024;-77
2023/08/06 21:12:15;;;;;;;8.45;1.92;;;12.00;82.20;;;;;;5115610;28;20044;-77
2023/08/06 21:14:42;;;;;;;5.38;1.80;;;12.10;82.30;;;;;;5115766;28;20031;-76
2023/08/06 21:17:09;;;;;;;4.68;1.70;;;12.10;82.40;;;;;;5096925;28;20031;-77
2023/08/06 21:19:36;;;;;;;6.22;1.63;;;12.10;83.10;;;;;;5114073;28;20031;-77
2023/08/06 21:22:06;;;;;;;7.10;2.03;;;12.20;83.40;;;;;;5114093;28;20074;-76
2023/08/06 21:24:33;;;;;;;7.00;1.88;;;12.20;83.60;;;;;;5097067;28;20032;-76
2023/08/06 21:27:01;;;;;;;3.33;1.67;;;12.20;83.30;;;;;;5111278;28;20595;-76
2023/08/06 21:29:28;;;;;;;4.22;1.80;;;12.20;83.40;;;;;;5094763;28;20032;-82
2023/08/06 21:31:55;;;;;;;4.72;1.60;;;12.20;83.30;;;;;;5094851;28;20393;-82
2023/08/06 21:34:22;;;;;;;3.60;1.90;;;12.30;83.20;;;;;;5094496;28;20068;-82
2023/08/06 21:36:52;;;;;;;3.45;1.70;;;12.20;83.20;;;;;;5095021;28;20055;-82
2023/08/06 21:39:19;;;;;;;3.33;1.80;;;12.30;83.40;;;;;;5094748;28;20424;-82
2023/08/06 21:41:46;;;;;;;6.63;1.90;;;12.30;83.50;;;;;;5094599;28;20268;-82
2023/08/06 21:44:14;;;;;;;4.53;2.05;;;12.30;83.30;;;;;;5094154;28;20024;-82
2023/08/06 21:46:41;;;;;;;4.90;1.95;;;12.40;83.60;;;;;;5098591;28;20423;-79
2023/08/06 21:49:08;;;;;;;5.32;1.90;;;12.40;83.70;;;;;;5106118;27;20024;-79
2023/08/06 21:51:35;;;;;;;2.90;1.90;;;12.40;83.40;;;;;;5094362;28;20402;-79
2023/08/06 21:54:03;;;;;;;5.75;1.77;;;12.50;83.40;;;;;;5076132;28;20090;-79
2023/08/06 21:56:30;;;;;;;3.58;1.80;;;12.50;83.80;;;;;;5107544;28;20078;-78
2023/08/06 21:58:59;;;;;;;6.07;2.17;;;12.50;83.80;;;;;;5099188;28;20028;-79
2023/08/06 22:01:26;;;;;;;5.20;2.00;;;12.60;84.00;;;;;;5093731;28;20032;-79
2023/08/06 22:03:54;;;;;;;9.75;2.03;;;12.70;83.80;;;;;;5111633;28;20035;-79
2023/08/06 22:06:22;;;;;;;5.50;2.30;;;12.70;84.20;;;;;;5113278;28;20059;-79
2023/08/06 22:08:49;;;;;;;8.60;2.17;;;12.70;84.00;;;;;;5113253;28;20027;-79
2023/08/06 22:11:16;;;;;;;4.15;2.10;;;12.70;84.00;;;;;;5096303;28;20036;-79